Time;durP1;ratioP1;P1;durP2;ratioP2;P2;SDS_P1;SDS_P2;PMS_P1;PMS_P2;Temp;Humidity;BMP_temperature;BMP_pressure;BME280_temperature;BME280_humidity;BME280_pressure;Samples;Min_cycle;Max_cycle;Signal;HPM_P1;HPM_P2
2022/08/05 00:01:48;;;;;;;10.15;3.95;;;;;;;22.37;61.57;92729.72;5034100;28;20052;-74
2022/08/05 00:04:14;;;;;;;7.80;4.03;;;;;;;22.34;61.74;92735.00;5034146;28;20455;-75
2022/08/05 00:06:39;;;;;;;6.20;4.18;;;;;;;22.30;61.76;92734.16;5017216;28;20033;-74
2022/08/05 00:09:05;;;;;;;12.38;3.80;;;;;;;22.31;61.65;92730.38;5052012;28;20143;-74
2022/08/05 00:11:30;;;;;;;7.35;4.35;;;;;;;22.29;61.75;92727.28;5052001;28;20041;-74
2022/08/05 00:13:56;;;;;;;9.32;4.00;;;;;;;22.26;61.93;92733.31;5052051;28;20087;-74
2022/08/05 00:16:22;;;;;;;9.02;3.92;;;;;;;22.26;61.51;92733.31;5051765;28;20033;-75
2022/08/05 00:18:48;;;;;;;8.80;4.20;;;;;;;22.24;61.92;92728.34;5034342;28;20406;-74
2022/08/05 00:21:15;;;;;;;10.45;3.85;;;;;;;22.21;61.95;92727.16;5033369;28;20469;-74
2022/08/05 00:23:44;;;;;;;9.85;3.97;;;;;;;22.19;61.57;92723.28;5033557;28;20017;-74
2022/08/05 00:26:09;;;;;;;6.28;4.40;;;;;;;22.17;61.95;92728.94;5051095;28;20063;-74
2022/08/05 00:28:36;;;;;;;6.47;4.30;;;;;;;22.13;62.19;92730.75;5033410;28;20056;-74
2022/08/05 00:31:03;;;;;;;9.73;3.92;;;;;;;22.13;62.06;92733.44;5051382;28;20115;-74
2022/08/05 00:33:29;;;;;;;6.88;3.90;;;;;;;22.11;62.18;92733.03;5033443;28;20090;-74
2022/08/05 00:35:54;;;;;;;9.05;3.67;;;;;;;22.11;61.75;92737.56;5033413;28;20021;-74
2022/08/05 00:38:20;;;;;;;6.55;3.75;;;;;;;22.10;62.07;92728.03;5033440;28;20450;-74
2022/08/05 00:40:51;;;;;;;10.80;4.22;;;;;;;22.08;62.29;92728.38;5033479;28;20040;-74
2022/08/05 00:43:17;;;;;;;7.50;4.03;;;;;;;22.07;62.32;92726.84;5033334;28;20411;-74
2022/08/05 00:45:43;;;;;;;16.20;4.13;;;;;;;22.06;62.24;92721.88;5050968;28;20045;-75
2022/08/05 00:48:11;;;;;;;8.80;4.00;;;;;;;22.06;62.17;92722.63;5033266;28;20492;-74
2022/08/05 00:50:41;;;;;;;6.85;3.75;;;;;;;22.04;62.32;92723.00;5050949;28;20398;-74
2022/08/05 00:53:07;;;;;;;7.63;4.20;;;;;;;22.02;62.54;92719.91;5050845;28;20078;-74
2022/08/05 00:55:33;;;;;;;8.07;4.03;;;;;;;22.00;62.64;92730.16;5033043;28;20128;-74
2022/08/05 00:57:59;;;;;;;8.18;3.83;;;;;;;21.98;62.54;92723.63;5051273;28;20155;-74
2022/08/05 01:00:26;;;;;;;8.30;4.00;;;;;;;21.97;62.70;92733.50;5033245;28;20429;-74
2022/08/05 01:02:51;;;;;;;16.02;4.15;;;;;;;21.94;62.67;92728.88;5050925;28;20041;-74
2022/08/05 01:05:17;;;;;;;10.88;4.15;;;;;;;21.95;62.59;92735.78;5050687;28;20074;-74
2022/08/05 01:07:43;;;;;;;7.10;4.00;;;;;;;21.94;62.73;92728.88;5033172;28;20675;-75
2022/08/05 01:10:12;;;;;;;7.45;4.20;;;;;;;21.92;62.65;92727.69;5038469;28;20037;-74
2022/08/05 01:12:44;;;;;;;8.30;3.92;;;;;;;21.91;63.21;92723.47;5057393;28;20036;-74
2022/08/05 01:15:11;;;;;;;9.15;4.05;;;;;;;21.88;62.84;92730.28;5022985;28;20486;-74
2022/08/05 01:17:48;;;;;;;5.90;4.13;;;;;;;21.88;63.01;92724.19;5022967;28;20566;-74
2022/08/05 01:20:19;;;;;;;5.93;3.95;;;;;;;21.87;62.64;92720.00;5057373;28;20106;-74
2022/08/05 01:22:51;;;;;;;17.83;4.35;;;;;;;21.87;62.48;92728.00;5057440;28;20090;-73
2022/08/05 01:25:25;;;;;;;5.82;4.38;;;;;;;21.87;62.55;92722.66;5057157;28;20099;-74
2022/08/05 01:28:13;;;;;;;6.03;4.00;;;;;;;21.86;62.55;92721.09;5039534;28;20032;-74
2022/08/05 01:30:52;;;;;;;8.05;3.78;;;;;;;21.85;62.82;92724.91;5057325;28;20504;-74
2022/08/05 01:33:22;;;;;;;7.50;4.07;;;;;;;21.82;62.99;92727.13;5057334;28;20053;-74
2022/08/05 01:35:49;;;;;;;6.10;4.13;;;;;;;21.80;63.00;92718.72;5039339;28;20390;-75
2022/08/05 01:38:17;;;;;;;7.10;3.80;;;;;;;21.78;62.92;92720.19;5039502;28;20086;-74
2022/08/05 01:40:45;;;;;;;7.65;3.97;;;;;;;21.78;62.74;92723.63;5039667;28;20068;-74
2022/08/05 01:43:12;;;;;;;6.43;4.22;;;;;;;21.77;62.80;92722.09;5039889;28;20064;-74
2022/08/05 01:45:39;;;;;;;8.00;3.97;;;;;;;21.74;62.42;92714.78;5057299;28;20121;-74
2022/08/05 01:48:07;;;;;;;6.45;4.10;;;;;;;21.74;62.89;92719.34;5057692;28;20064;-74
2022/08/05 01:50:38;;;;;;;7.72;4.30;;;;;;;21.71;63.23;92720.81;5057185;28;20041;-74
2022/08/05 01:53:11;;;;;;;9.18;4.05;;;;;;;21.70;63.63;92718.50;5056934;28;20049;-74
2022/08/05 01:55:38;;;;;;;6.53;3.95;;;;;;;21.65;63.48;92716.88;5057065;28;20624;-74
2022/08/05 01:58:06;;;;;;;10.98;3.92;;;;;;;21.64;63.01;92720.69;5056924;28;20032;-74
2022/08/05 02:00:35;;;;;;;12.48;3.83;;;;;;;21.62;63.02;92718.34;5057143;28;20483;-74
2022/08/05 02:03:08;;;;;;;6.47;4.30;;;;;;;21.63;63.44;92716.47;5039280;28;20028;-74
2022/08/05 02:05:35;;;;;;;10.00;4.50;;;;;;;21.60;63.35;92717.94;5056861;28;20163;-74
2022/08/05 02:08:02;;;;;;;9.48;3.92;;;;;;;21.58;62.97;92711.41;5039082;28;20039;-73
2022/08/05 02:10:34;;;;;;;11.73;4.30;;;;;;;21.59;63.10;92715.59;5057103;28;20482;-73
2022/08/05 02:13:11;;;;;;;7.40;3.95;;;;;;;21.58;63.17;92711.41;5057026;28;20402;-74
2022/08/05 02:15:43;;;;;;;8.82;4.18;;;;;;;21.57;62.76;92712.53;5056804;28;20402;-74
2022/08/05 02:18:16;;;;;;;6.75;4.38;;;;;;;21.57;62.79;92707.19;5056800;28;20040;-74
2022/08/05 02:20:59;;;;;;;7.05;4.07;;;;;;;21.56;63.24;92706.44;5036527;28;20047;-74
2022/08/05 02:23:31;;;;;;;10.25;4.50;;;;;;;21.54;63.47;92707.91;5035922;28;20043;-74
2022/08/05 02:26:01;;;;;;;7.78;3.97;;;;;;;21.53;63.13;92717.78;5033638;28;20040;-74
2022/08/05 02:28:29;;;;;;;7.15;3.90;;;;;;;21.53;62.77;92709.03;5033631;28;20491;-75
2022/08/05 02:31:01;;;;;;;7.72;3.60;;;;;;;21.51;63.02;92711.28;5033612;28;20076;-74
2022/08/05 02:33:28;;;;;;;;;;;;;;;21.51;62.68;92705.94;5034155;28;20380;-74
2022/08/05 02:35:57;;;;;;;8.77;4.03;;;;;;;21.50;62.12;92712.38;5015729;28;19913;-74
2022/08/05 02:38:24;;;;;;;6.55;3.63;;;;;;;21.48;62.02;92703.97;5032380;28;20111;-74
2022/08/05 02:40:52;;;;;;;10.50;3.97;;;;;;;21.48;62.32;92704.75;5015835;28;20056;-74
2022/08/05 02:43:20;;;;;;;6.93;4.00;;;;;;;21.46;62.37;92699.00;4999352;28;20647;-74
2022/08/05 02:45:48;;;;;;;9.55;3.92;;;;;;;21.45;62.35;92699.34;5033252;28;20018;-74
2022/08/05 02:48:16;;;;;;;11.07;3.92;;;;;;;21.44;62.26;92700.47;5033342;28;20385;-74
2022/08/05 02:50:46;;;;;;;8.68;3.60;;;;;;;21.42;62.05;92695.50;5033337;28;20038;-74
2022/08/05 02:53:13;;;;;;;10.05;4.22;;;;;;;21.40;61.84;92695.81;5033282;28;20046;-74
2022/08/05 02:55:39;;;;;;;9.60;4.13;;;;;;;21.40;61.91;92695.81;5033116;28;20037;-75
2022/08/05 02:58:05;;;;;;;6.65;4.07;;;;;;;21.40;61.90;92690.50;5033231;28;20045;-74
2022/08/05 03:00:33;;;;;;;13.27;4.57;;;;;;;21.39;62.07;92690.81;5015322;28;20574;-74
2022/08/05 03:03:00;;;;;;;8.38;3.97;;;;;;;21.38;62.25;92687.38;5015336;28;20037;-74
2022/08/05 03:05:26;;;;;;;8.50;3.75;;;;;;;21.35;62.05;92688.09;5032919;28;20413;-74
2022/08/05 03:07:53;;;;;;;6.28;3.47;;;;;;;21.33;62.07;92679.69;5031958;28;20044;-74
2022/08/05 03:10:19;;;;;;;7.13;3.78;;;;;;;21.33;61.76;92685.00;5015153;28;20095;-74
2022/08/05 03:12:45;;;;;;;7.38;3.53;;;;;;;21.33;61.63;92681.56;4998856;28;20042;-74
2022/08/05 03:15:11;;;;;;;5.45;3.90;;;;;;;21.33;61.84;92677.00;5032845;28;20048;-74
2022/08/05 03:17:37;;;;;;;5.53;3.88;;;;;;;21.35;61.94;92680.09;5031756;28;20076;-73
2022/08/05 03:20:04;;;;;;;6.07;4.13;;;;;;;21.36;62.34;92673.66;5015157;28;20116;-74
2022/08/05 03:22:30;;;;;;;5.85;3.83;;;;;;;21.36;62.31;92678.97;5014852;28;20040;-74
2022/08/05 03:24:56;;;;;;;7.10;4.07;;;;;;;21.36;62.21;92672.88;5032498;28;20041;-74
2022/08/05 03:27:22;;;;;;;7.90;3.92;;;;;;;21.35;62.19;92672.13;5014791;28;20041;-74
2022/08/05 03:29:48;;;;;;;7.57;3.97;;;;;;;21.33;62.41;92669.03;5014732;28;20029;-74
2022/08/05 03:32:15;;;;;;;5.97;3.75;;;;;;;21.33;62.38;92663.69;5014751;28;20033;-74
2022/08/05 03:34:42;;;;;;;7.20;4.05;;;;;;;21.33;62.57;92663.69;4998434;28;20415;-74
2022/08/05 03:37:08;;;;;;;6.53;3.92;;;;;;;21.32;62.88;92669.38;5032457;28;20052;-75
2022/08/05 03:39:33;;;;;;;9.43;4.50;;;;;;;21.31;62.60;92667.84;5014633;28;20037;-74
2022/08/05 03:41:59;;;;;;;7.93;3.80;;;;;;;21.29;62.72;92662.09;5032605;28;20408;-74
2022/08/05 03:44:24;;;;;;;6.85;3.88;;;;;;;21.27;62.55;92662.44;5014534;28;20047;-74
2022/08/05 03:46:50;;;;;;;8.88;3.97;;;;;;;21.27;62.67;92659.00;5032131;28;20041;-74
2022/08/05 03:49:16;;;;;;;5.57;3.70;;;;;;;21.24;62.43;92660.47;5014544;28;20033;-74
2022/08/05 03:51:54;;;;;;;6.30;4.25;;;;;;;21.23;62.90;92658.16;5014423;28;20514;-74
2022/08/05 03:54:47;;;;;;;7.07;4.45;;;;;;;21.21;63.40;92655.84;5031969;28;20110;-74
2022/08/05 03:57:16;;;;;;;8.95;4.40;;;;;;;21.18;63.61;92659.97;5032026;28;20033;-74
2022/08/05 03:59:48;;;;;;;11.68;4.10;;;;;;;21.15;63.85;92659.91;5030823;28;20032;-74
2022/08/05 04:02:15;;;;;;;8.70;4.05;;;;;;;21.13;63.69;92664.78;5030669;28;20069;-74
2022/08/05 04:04:42;;;;;;;6.68;4.25;;;;;;;21.11;63.76;92661.69;5031867;28;20040;-74
2022/08/05 04:07:10;;;;;;;7.72;3.88;;;;;;;21.09;63.79;92658.63;5031766;28;20094;-74
2022/08/05 04:09:36;;;;;;;9.43;4.30;;;;;;;21.07;63.72;92652.88;5031768;28;20041;-74
2022/08/05 04:12:02;;;;;;;6.93;4.00;;;;;;;21.08;63.58;92662.41;5031977;28;20041;-74
2022/08/05 04:14:28;;;;;;;7.63;4.03;;;;;;;21.07;63.46;92658.19;5014064;28;20083;-74
2022/08/05 04:16:54;;;;;;;6.28;4.00;;;;;;;21.07;63.14;92652.88;5031649;28;20017;-74
2022/08/05 04:19:20;;;;;;;5.93;3.70;;;;;;;21.09;63.14;92653.28;5031656;28;20514;-75
2022/08/05 04:21:45;;;;;;;5.80;4.10;;;;;;;21.11;63.34;92656.38;5013887;28;20038;-75
2022/08/05 04:24:11;;;;;;;7.25;4.20;;;;;;;21.13;63.31;92662.13;5031788;28;20030;-74
2022/08/05 04:26:36;;;;;;;7.40;4.50;;;;;;;21.15;63.09;92662.56;5031444;28;20443;-74
2022/08/05 04:29:02;;;;;;;7.80;4.70;;;;;;;21.16;62.98;92662.19;5031657;28;20067;-75
2022/08/05 04:31:28;;;;;;;8.43;4.68;;;;;;;21.20;63.62;92655.06;5031452;28;20040;-74
2022/08/05 04:33:53;;;;;;;7.10;4.78;;;;;;;21.20;63.74;92659.63;5013500;28;20091;-74
2022/08/05 04:36:19;;;;;;;9.82;4.60;;;;;;;21.19;64.49;92658.09;5013478;28;20096;-74
2022/08/05 04:38:44;;;;;;;8.15;4.60;;;;;;;21.23;64.31;92666.13;5031303;28;20090;-74
2022/08/05 04:41:10;;;;;;;11.25;4.53;;;;;;;21.26;64.34;92663.56;5031172;28;20045;-74
2022/08/05 04:43:37;;;;;;;12.85;4.63;;;;;;;21.30;64.41;92669.72;5013122;28;20088;-74
2022/08/05 04:46:03;;;;;;;18.45;4.57;;;;;;;21.34;65.00;92664.47;5030988;28;20049;-74
2022/08/05 04:48:29;;;;;;;12.57;4.13;;;;;;;21.37;64.66;92669.88;5013494;28;20038;-74
2022/08/05 04:50:55;;;;;;;7.88;4.28;;;;;;;21.42;64.39;92672.28;5013433;28;20037;-73
2022/08/05 04:53:21;;;;;;;7.65;4.30;;;;;;;21.49;64.52;92666.34;5031232;28;20051;-74
2022/08/05 04:55:46;;;;;;;8.75;4.22;;;;;;;21.55;64.80;92667.63;5013685;28;20116;-74
2022/08/05 04:58:15;;;;;;;7.22;4.25;;;;;;;21.64;64.78;92667.41;5038464;28;20418;-77
2022/08/05 05:01:02;;;;;;;7.03;4.90;;;;;;;21.73;64.37;92667.97;5039462;28;20033;-76
2022/08/05 05:03:31;;;;;;;6.78;4.53;;;;;;;21.82;64.61;92673.09;5043725;28;20527;-76
2022/08/05 05:05:56;;;;;;;8.10;4.40;;;;;;;21.92;64.58;92677.06;5030809;28;20041;-79
2022/08/05 05:08:22;;;;;;;10.98;4.53;;;;;;;22.00;64.25;92676.09;5048498;28;20048;-77
2022/08/05 05:10:47;;;;;;;6.82;4.40;;;;;;;22.10;63.89;92678.16;5051218;28;20041;-77
2022/08/05 05:13:15;;;;;;;9.65;4.88;;;;;;;22.20;64.14;92682.13;5031262;28;20037;-78
2022/08/05 05:15:42;;;;;;;8.68;4.38;;;;;;;22.32;64.14;92689.25;5049517;28;20040;-75
2022/08/05 05:18:08;;;;;;;7.68;4.50;;;;;;;22.42;63.95;92686.75;5045732;28;20036;-77
2022/08/05 05:20:34;;;;;;;7.88;4.53;;;;;;;22.54;63.68;92685.81;5047162;28;20375;-77
2022/08/05 05:23:05;;;;;;;10.13;4.35;;;;;;;22.65;63.71;92681.44;5033019;28;20033;-76
2022/08/05 05:25:31;;;;;;;6.28;4.40;;;;;;;22.77;63.44;92679.72;5033616;28;20075;-76
2022/08/05 05:27:57;;;;;;;8.23;4.35;;;;;;;22.87;64.17;92679.84;5045290;28;20048;-78
2022/08/05 05:30:23;;;;;;;11.80;4.47;;;;;;;22.93;64.23;92680.34;5008739;28;20033;-78
2022/08/05 05:32:48;;;;;;;10.63;4.85;;;;;;;22.97;64.09;92675.81;5043867;28;20029;-80
2022/08/05 05:35:15;;;;;;;8.68;4.88;;;;;;;23.01;64.46;92675.91;5045201;28;20040;-77
2022/08/05 05:37:49;;;;;;;7.05;4.63;;;;;;;23.04;65.31;92686.63;5025049;28;20434;-77
2022/08/05 05:40:17;;;;;;;7.78;4.85;;;;;;;23.10;65.80;92689.75;5034764;28;20041;-78
2022/08/05 05:42:42;;;;;;;7.65;4.85;;;;;;;23.18;66.09;92693.31;5051877;28;20033;-77
2022/08/05 05:45:09;;;;;;;10.52;4.75;;;;;;;23.24;65.89;92689.22;5051507;28;20044;-76
2022/08/05 05:47:35;;;;;;;8.43;4.80;;;;;;;23.32;65.88;92690.84;5033198;28;20064;-77
2022/08/05 05:50:01;;;;;;;8.15;4.93;;;;;;;23.40;65.52;92692.47;5045486;28;20036;-76
2022/08/05 05:52:26;;;;;;;9.98;5.07;;;;;;;23.47;64.75;92700.59;5051830;28;20021;-77
2022/08/05 05:54:52;;;;;;;10.45;4.90;;;;;;;23.54;64.34;92696.47;5033115;28;20045;-77
2022/08/05 05:57:18;;;;;;;10.45;5.03;;;;;;;23.61;64.96;92693.91;5053387;28;20086;-77
2022/08/05 05:59:44;;;;;;;6.97;4.90;;;;;;;23.69;66.25;92693.63;5052427;28;20059;-77
2022/08/05 06:02:09;;;;;;;16.13;5.47;;;;;;;23.75;66.09;92696.75;5054118;28;20041;-77
2022/08/05 06:04:35;;;;;;;14.55;5.32;;;;;;;23.79;66.34;92699.50;5054582;28;20044;-77
2022/08/05 06:07:00;;;;;;;10.02;5.03;;;;;;;23.83;65.34;92701.06;5048768;28;20041;-77
2022/08/05 06:09:26;;;;;;;15.77;4.93;;;;;;;23.86;65.23;92692.31;5048240;28;20033;-76
2022/08/05 06:11:52;;;;;;;9.20;5.18;;;;;;;23.90;65.74;92695.81;5053759;28;20131;-76
2022/08/05 06:14:18;;;;;;;15.73;5.05;;;;;;;23.93;65.72;92698.88;5053723;28;20048;-77
2022/08/05 06:16:43;;;;;;;20.77;5.70;;;;;;;23.94;65.15;92703.88;5052793;28;20021;-77
2022/08/05 06:19:09;;;;;;;19.30;5.40;;;;;;;23.94;65.52;92700.44;5052893;28;20068;-77
2022/08/05 06:21:36;;;;;;;13.40;5.97;;;;;;;23.88;67.29;92699.97;5019445;28;20131;-76
2022/08/05 06:24:01;;;;;;;11.90;5.75;;;;;;;23.88;66.84;92698.06;5053213;28;20508;-77
2022/08/05 06:26:27;;;;;;;15.43;5.95;;;;;;;23.87;67.52;92699.22;5019672;28;20084;-77
2022/08/05 06:28:52;;;;;;;15.50;5.53;;;;;;;23.86;66.81;92700.34;5053760;28;20048;-77
2022/08/05 06:31:18;;;;;;;17.55;6.53;;;;;;;23.86;66.63;92703.00;5020455;28;20166;-77
2022/08/05 06:33:44;;;;;;;9.38;6.20;;;;;;;23.86;66.45;92697.66;5033942;28;20053;-76
2022/08/05 06:36:09;;;;;;;14.88;6.07;;;;;;;23.89;67.16;92702.28;5033737;28;20044;-77
2022/08/05 06:38:35;;;;;;;11.35;5.93;;;;;;;23.88;68.03;92699.97;5016017;28;20045;-77
2022/08/05 06:41:00;;;;;;;10.57;5.60;;;;;;;23.92;67.41;92700.78;5024551;28;20221;-77
2022/08/05 06:43:26;;;;;;;18.95;6.78;;;;;;;23.94;68.40;92709.22;5036440;28;20037;-77
2022/08/05 06:45:51;;;;;;;11.95;6.30;;;;;;;23.93;66.78;92707.66;5051645;28;20037;-77
2022/08/05 06:48:17;;;;;;;18.13;6.40;;;;;;;23.88;66.63;92699.97;5034775;28;20461;-77
2022/08/05 06:50:42;;;;;;;12.07;6.68;;;;;;;23.88;66.12;92708.00;5053616;28;20029;-76
2022/08/05 06:53:08;;;;;;;15.75;6.50;;;;;;;23.88;66.27;92708.00;5036135;28;20060;-76
2022/08/05 06:55:35;;;;;;;9.82;6.40;;;;;;;23.89;66.61;92704.22;5036904;28;20051;-77
2022/08/05 06:58:00;;;;;;;9.65;6.43;;;;;;;23.94;65.73;92700.44;5036808;28;20041;-76
2022/08/05 07:00:26;;;;;;;14.15;6.40;;;;;;;23.97;65.29;92703.13;5036112;28;20037;-77
2022/08/05 07:02:52;;;;;;;10.25;6.70;;;;;;;23.99;67.03;92700.13;5035901;28;20041;-77
2022/08/05 07:05:17;;;;;;;14.45;6.78;;;;;;;24.00;66.84;92702.44;5034428;28;20094;-77
2022/08/05 07:07:43;;;;;;;17.90;6.60;;;;;;;24.06;67.33;92700.19;5019082;28;20401;-77
2022/08/05 07:10:09;;;;;;;15.68;6.38;;;;;;;24.09;66.92;92700.25;5053580;28;20035;-77
2022/08/05 07:18:04;;;;;;;15.35;6.50;;;;;;;24.19;67.07;92706.06;5041019;28;20037;-78
2022/08/05 07:20:29;;;;;;;14.10;6.65;;;;;;;24.28;66.72;92701.97;5035009;28;20056;-79
2022/08/05 07:22:55;;;;;;;12.00;6.63;;;;;;;24.34;66.27;92699.72;5037236;28;20033;-77
2022/08/05 07:25:21;;;;;;;13.13;6.15;;;;;;;24.44;66.29;92699.06;5020147;28;20068;-78
2022/08/05 07:27:48;;;;;;;13.25;6.07;;;;;;;24.55;65.80;92693.84;5055126;28;20094;-78
2022/08/05 07:30:14;;;;;;;17.60;6.60;;;;;;;24.67;65.20;92704.25;5043794;28;20068;-79
2022/08/05 07:32:39;;;;;;;16.20;6.07;;;;;;;24.76;65.44;92703.19;5048475;28;20041;-76
2022/08/05 07:35:12;;;;;;;12.13;6.57;;;;;;;24.84;64.76;92696.78;5033525;28;20051;-76
2022/08/05 07:37:38;;;;;;;11.50;5.32;;;;;;;24.86;64.28;92695.25;5032842;28;20127;-76
2022/08/05 07:40:06;;;;;;;8.48;5.60;;;;;;;24.93;64.53;92697.22;5047186;28;20029;-76
2022/08/05 07:42:32;;;;;;;8.55;5.43;;;;;;;24.97;63.53;92690.00;5050499;28;20040;-76
2022/08/05 07:44:57;;;;;;;9.43;5.15;;;;;;;25.02;62.48;92692.31;5033515;28;20546;-76
2022/08/05 07:47:23;;;;;;;11.88;5.40;;;;;;;24.96;62.93;92690.34;5032496;28;20133;-76
2022/08/05 07:49:52;;;;;;;10.38;5.38;;;;;;;25.05;63.25;92690.81;5043744;28;20057;-76
2022/08/05 07:52:18;;;;;;;13.10;5.63;;;;;;;25.14;63.49;92686.66;5032131;28;20506;-76
2022/08/05 07:54:44;;;;;;;10.98;5.28;;;;;;;25.24;63.84;92690.59;5051184;28;20124;-76
2022/08/05 07:57:10;;;;;;;11.88;5.40;;;;;;;25.33;64.59;92690.25;5050462;28;20554;-76
2022/08/05 07:59:35;;;;;;;11.70;5.35;;;;;;;25.30;62.80;92683.72;5031084;28;20502;-76
2022/08/05 08:02:01;;;;;;;8.55;5.22;;;;;;;25.37;61.31;92688.34;5049772;28;20068;-76
2022/08/05 08:04:27;;;;;;;10.35;4.68;;;;;;;25.65;61.02;92692.34;5013555;28;20438;-76
2022/08/05 08:06:52;;;;;;;7.80;4.95;;;;;;;25.78;59.60;92693.53;5032610;28;20542;-76
2022/08/05 08:09:18;;;;;;;7.97;4.53;;;;;;;26.09;59.36;92696.75;5015945;28;20119;-76
2022/08/05 08:11:44;;;;;;;9.88;4.53;;;;;;;26.51;58.32;92693.41;5047343;28;20041;-76
2022/08/05 08:14:09;;;;;;;12.70;4.68;;;;;;;26.82;56.26;92690.41;5032474;28;20041;-76
2022/08/05 08:16:35;;;;;;;7.72;4.45;;;;;;;27.15;49.28;92692.69;5032299;28;20025;-76
2022/08/05 08:19:00;;;;;;;10.60;4.82;;;;;;;27.08;57.33;92695.41;5049648;28;20044;-76
2022/08/05 08:21:26;;;;;;;10.93;4.30;;;;;;;26.94;56.61;92692.72;5048207;28;20047;-76
2022/08/05 08:23:51;;;;;;;7.13;4.45;;;;;;;27.02;56.14;92688.91;5013356;28;20025;-76
2022/08/05 08:26:17;;;;;;;6.43;4.40;;;;;;;27.09;55.63;92686.19;5030267;28;20041;-76
2022/08/05 08:28:42;;;;;;;6.72;4.07;;;;;;;27.26;54.45;92687.34;5047466;28;20033;-76
2022/08/05 08:31:08;;;;;;;7.03;4.18;;;;;;;27.39;55.09;92691.16;5047865;28;20036;-76
2022/08/05 08:33:34;;;;;;;8.38;4.30;;;;;;;27.69;54.53;92694.56;5026049;28;20044;-76
2022/08/05 08:36:00;;;;;;;8.98;4.45;;;;;;;27.71;54.89;92689.56;5048917;28;20098;-76
2022/08/05 08:38:25;;;;;;;9.27;4.60;;;;;;;27.78;54.48;92689.53;5049985;28;20076;-76
2022/08/05 08:40:51;;;;;;;6.45;4.03;;;;;;;27.73;53.20;92687.25;5047679;28;20036;-76
2022/08/05 08:43:18;;;;;;;5.88;4.20;;;;;;;27.79;51.21;92693.78;5049269;28;20135;-76
2022/08/05 08:45:45;;;;;;;9.80;4.18;;;;;;;27.72;51.84;92681.13;5031000;28;20043;-76
2022/08/05 08:48:14;;;;;;;9.98;4.75;;;;;;;27.69;52.79;92681.88;5031007;28;20052;-76
2022/08/05 08:50:43;;;;;;;13.88;4.55;;;;;;;27.86;51.44;92690.31;5049466;28;20506;-80
2022/08/05 08:53:10;;;;;;;10.50;4.60;;;;;;;27.79;51.86;92683.00;5046549;28;20048;-76
2022/08/05 08:55:37;;;;;;;7.13;4.78;;;;;;;28.00;51.92;92682.19;5031768;28;20073;-76
2022/08/05 08:58:03;;;;;;;7.28;4.10;;;;;;;27.85;51.38;92683.41;5050113;28;20082;-76
2022/08/05 09:00:29;;;;;;;7.40;4.18;;;;;;;27.90;51.72;92681.09;5049522;28;20045;-76
2022/08/05 09:02:56;;;;;;;6.80;4.10;;;;;;;27.92;51.52;92684.16;5038275;28;20487;-79
2022/08/05 09:05:22;;;;;;;5.20;3.70;;;;;;;28.08;50.47;92685.59;5044986;28;20395;-77
2022/08/05 09:07:51;;;;;;;8.80;4.47;;;;;;;27.91;48.85;92687.97;5050089;28;20124;-76
2022/08/05 09:10:17;;;;;;;5.90;3.80;;;;;;;28.08;49.46;92693.69;5047013;28;20478;-76
2022/08/05 09:12:42;;;;;;;9.30;4.13;;;;;;;28.16;49.21;92684.41;5046913;28;20048;-77
2022/08/05 09:15:08;;;;;;;9.85;4.30;;;;;;;28.42;47.68;92689.28;5007468;28;20033;-77
2022/08/05 09:17:34;;;;;;;7.38;3.92;;;;;;;28.42;47.86;92689.28;5033380;28;20037;-78
2022/08/05 09:20:00;;;;;;;7.50;4.00;;;;;;;28.30;47.45;92686.28;5052607;28;20491;-78
2022/08/05 09:22:26;;;;;;;6.63;3.60;;;;;;;28.55;48.21;92691.53;5045691;28;20322;-80
2022/08/05 09:25:02;;;;;;;10.63;3.90;;;;;;;28.53;48.16;92691.16;5016527;28;20037;-78
2022/08/05 09:27:34;;;;;;;8.50;3.90;;;;;;;28.65;48.53;92680.69;5031947;28;20040;-74
2022/08/05 09:29:59;;;;;;;7.18;4.13;;;;;;;28.73;47.07;92680.66;5008742;28;20064;-75
2022/08/05 09:32:36;;;;;;;5.00;3.85;;;;;;;28.69;46.57;92678.00;5035662;28;20037;-75
2022/08/05 09:35:13;;;;;;;5.32;3.90;;;;;;;28.73;46.56;92677.94;5051940;28;20056;-75
2022/08/05 09:37:53;;;;;;;8.85;3.90;;;;;;;28.92;46.78;92679.38;5053621;28;20033;-75
2022/08/05 09:40:29;;;;;;;5.82;4.00;;;;;;;29.02;45.94;92675.81;5053884;28;20419;-75
2022/08/05 09:42:55;;;;;;;6.80;4.00;;;;;;;28.65;45.24;92671.88;5019517;28;20045;-75
2022/08/05 09:45:34;;;;;;;10.35;4.30;;;;;;;28.51;45.40;92680.03;5052236;28;20399;-74
2022/08/05 09:47:59;;;;;;;5.30;3.78;;;;;;;28.69;43.85;92680.69;5021875;28;20044;-75
2022/08/05 09:50:37;;;;;;;8.23;3.35;;;;;;;29.00;43.81;92672.75;5016206;28;20530;-75
2022/08/05 09:53:02;;;;;;;7.72;3.50;;;;;;;28.95;44.47;92670.47;5012630;28;20069;-75
2022/08/05 09:55:34;;;;;;;8.40;3.80;;;;;;;29.09;43.34;92672.31;5012825;28;20034;-75
2022/08/05 09:58:17;;;;;;;7.50;3.92;;;;;;;28.90;41.83;92660.91;5014351;28;20045;-74
2022/08/05 10:01:04;;;;;;;9.43;4.40;;;;;;;29.03;41.68;92667.34;5012606;28;20123;-74
2022/08/05 10:03:29;;;;;;;8.27;3.90;;;;;;;29.29;42.04;92661.75;5013872;28;20050;-74
2022/08/05 10:06:10;;;;;;;10.23;6.60;;;;;;;29.37;41.70;92657.81;5012530;28;20026;-74
2022/08/05 10:08:37;;;;;;;8.73;4.72;;;;;;;29.46;41.85;92658.13;5031503;28;20034;-74
2022/08/05 10:11:12;;;;;;;8.10;3.80;;;;;;;29.87;41.73;92654.59;5033215;28;20044;-74
2022/08/05 10:13:38;;;;;;;8.65;4.80;;;;;;;29.60;39.83;92663.34;5032099;28;20040;-74
2022/08/05 10:16:05;;;;;;;5.28;3.70;;;;;;;29.82;39.36;92649.66;5015537;28;20145;-74
2022/08/05 10:18:32;;;;;;;9.23;4.03;;;;;;;29.97;39.67;92653.72;5018088;28;20034;-74
2022/08/05 10:21:06;;;;;;;9.07;3.42;;;;;;;29.67;38.86;92654.41;5025253;28;20034;-74
2022/08/05 10:23:34;;;;;;;6.05;3.15;;;;;;;29.70;38.96;92642.88;5031915;28;20144;-74
2022/08/05 10:26:13;;;;;;;9.48;4.75;;;;;;;29.30;40.53;92647.88;5015360;28;20085;-74
2022/08/05 10:28:41;;;;;;;6.70;3.58;;;;;;;29.81;40.63;92646.19;5022939;28;20396;-74
2022/08/05 10:31:06;;;;;;;6.85;4.05;;;;;;;29.78;41.40;92643.53;5012198;28;20034;-74
2022/08/05 10:33:33;;;;;;;7.18;3.85;;;;;;;29.67;41.23;92649.78;5013783;28;20134;-74
2022/08/05 10:36:02;;;;;;;6.57;3.90;;;;;;;29.93;41.22;92652.22;5012068;28;20030;-75
2022/08/05 10:38:29;;;;;;;7.32;4.00;;;;;;;30.15;41.57;92644.63;5014360;28;20034;-75
2022/08/05 10:41:35;;;;;;;8.18;3.97;;;;;;;30.01;41.78;92643.63;4995710;28;20056;-74
2022/08/05 10:44:05;;;;;;;6.22;3.95;;;;;;;30.08;41.18;92634.66;4934620;29;20043;-74
2022/08/05 10:46:46;;;;;;;9.00;4.15;;;;;;;29.98;41.82;92636.34;5017626;28;20037;-74
2022/08/05 10:49:12;;;;;;;5.18;3.70;;;;;;;30.08;41.84;92630.06;5026873;28;20034;-75
2022/08/05 10:51:43;;;;;;;9.35;4.32;;;;;;;29.82;42.08;92628.06;5029369;28;20033;-74
2022/08/05 10:54:09;;;;;;;13.65;3.88;;;;;;;30.12;41.39;92623.84;5031305;28;20056;-74
2022/08/05 10:56:46;;;;;;;8.27;3.70;;;;;;;30.38;41.40;92631.22;5031518;28;20033;-74
2022/08/05 10:59:17;;;;;;;6.85;3.88;;;;;;;30.41;41.63;92624.25;5032581;28;20037;-74
2022/08/05 11:01:44;;;;;;;8.80;4.40;;;;;;;30.69;40.20;92625.72;5018372;28;20068;-74
2022/08/05 11:04:20;;;;;;;7.00;4.10;;;;;;;30.62;40.13;92621.22;5011379;28;20038;-74
2022/08/05 11:07:05;;;;;;;8.93;4.30;;;;;;;30.62;40.16;92618.53;5011483;28;20037;-74
2022/08/05 11:09:51;;;;;;;6.63;4.03;;;;;;;30.76;41.65;92619.44;5011473;28;20092;-75
2022/08/05 11:12:44;;;;;;;5.38;3.70;;;;;;;30.54;40.93;92622.50;5025989;28;20137;-74
2022/08/05 11:15:15;;;;;;;7.03;4.28;;;;;;;30.54;40.23;92621.75;5031110;28;20091;-74
2022/08/05 11:17:43;;;;;;;9.00;4.05;;;;;;;30.46;40.70;92616.44;5032541;28;20499;-74
2022/08/05 11:20:31;;;;;;;7.95;4.47;;;;;;;30.65;40.70;92620.41;5014618;28;20458;-74
2022/08/05 11:22:57;;;;;;;6.50;4.07;;;;;;;30.59;41.06;92613.16;5029388;28;20511;-74
2022/08/05 11:25:43;;;;;;;8.80;4.25;;;;;;;30.62;41.89;92612.34;5030711;28;20045;-74
2022/08/05 11:28:08;;;;;;;6.80;4.10;;;;;;;30.62;40.07;92617.75;5031177;28;20140;-74
2022/08/05 11:31:02;;;;;;;7.15;4.32;;;;;;;30.65;40.86;92603.44;5030928;28;20409;-74
2022/08/05 11:33:45;;;;;;;24.77;4.82;;;;;;;30.53;40.59;92604.75;5029517;28;20041;-74
2022/08/05 11:36:13;;;;;;;8.82;4.20;;;;;;;30.96;41.29;92603.34;5031815;28;20029;-74
2022/08/05 11:38:41;;;;;;;6.35;3.70;;;;;;;30.65;39.80;92601.50;5032083;28;20049;-74
2022/08/05 11:41:23;;;;;;;8.45;4.40;;;;;;;30.59;40.14;92602.38;5032248;28;20491;-74
2022/08/05 11:44:13;;;;;;;7.75;4.28;;;;;;;30.63;39.94;92598.44;5030187;28;20040;-74